Time;durP1;ratioP1;P1;durP2;ratioP2;P2;SDS_P1;SDS_P2;PMS_P1;PMS_P2;Temp;Humidity;BMP_temperature;BMP_pressure;BME280_temperature;BME280_humidity;BME280_pressure;Samples;Min_cycle;Max_cycle;Signal;HPM_P1;HPM_P2
2022/06/17 00:01:23;;;;;;;7.13;5.47;;;13.50;99.90;;;;;;4959966;28;90361;-36
2022/06/17 00:03:49;;;;;;;6.57;6.00;;;13.60;99.90;;;;;;4959644;28;91562;-36
2022/06/17 00:06:15;;;;;;;6.85;6.10;;;13.50;99.90;;;;;;4959774;28;89696;-36
2022/06/17 00:08:46;;;;;;;8.02;7.22;;;13.50;99.90;;;;;;4960435;28;89677;-36
2022/06/17 00:11:24;;;;;;;9.07;7.45;;;13.50;99.90;;;;;;4960592;28;90265;-34
2022/06/17 00:13:50;;;;;;;9.77;7.45;;;13.50;99.90;;;;;;4960191;28;89910;-32
2022/06/17 00:16:17;;;;;;;7.05;6.45;;;13.50;99.90;;;;;;4959594;28;89518;-35
2022/06/17 00:18:43;;;;;;;7.70;6.90;;;13.50;99.90;;;;;;4960037;28;89091;-38
2022/06/17 00:21:22;;;;;;;9.02;6.47;;;13.50;99.90;;;;;;4960351;28;90197;-37
2022/06/17 00:23:48;;;;;;;13.02;8.05;;;13.50;99.90;;;;;;4959534;28;92611;-33
2022/06/17 00:26:15;;;;;;;8.45;7.13;;;13.50;99.90;;;;;;4958986;28;89494;-37
2022/06/17 00:28:40;;;;;;;9.45;7.43;;;13.50;99.90;;;;;;4959681;28;89828;-37
2022/06/17 00:31:06;;;;;;;7.50;6.72;;;13.50;99.90;;;;;;4959639;28;89990;-35
2022/06/17 00:33:31;;;;;;;8.65;7.85;;;13.40;99.90;;;;;;4959725;28;88312;-36
2022/06/17 00:35:57;;;;;;;10.25;9.23;;;13.40;99.90;;;;;;4959736;28;90212;-37
2022/06/17 00:38:28;;;;;;;7.93;7.22;;;13.40;99.90;;;;;;4959189;28;88648;-36
2022/06/17 00:40:53;;;;;;;9.60;7.97;;;13.50;99.90;;;;;;4959360;28;90267;-33
2022/06/17 00:43:25;;;;;;;8.65;7.78;;;13.60;99.90;;;;;;4959332;28;89567;-38
2022/06/17 00:46:02;;;;;;;9.70;8.80;;;13.70;99.90;;;;;;4958927;28;89472;-36
2022/06/17 00:48:32;;;;;;;10.27;9.23;;;13.70;99.90;;;;;;4959372;28;89411;-34
2022/06/17 00:51:27;;;;;;;11.18;8.88;;;13.70;99.90;;;;;;4959730;28;90266;-33
2022/06/17 00:54:01;;;;;;;9.10;8.30;;;13.70;99.90;;;;;;4962661;28;89847;-36
2022/06/17 00:56:34;;;;;;;8.70;7.90;;;13.70;99.90;;;;;;4963148;28;89298;-33
2022/06/17 00:59:00;;;;;;;10.95;8.77;;;13.70;99.90;;;;;;4962978;28;89502;-34
2022/06/17 01:01:28;;;;;;;8.70;7.43;;;13.70;99.90;;;;;;4993870;22;90725;-34
2022/06/17 01:03:58;;;;;;;8.30;7.50;;;13.70;99.90;;;;;;4961140;28;90129;-34
2022/06/17 01:06:30;;;;;;;9.55;8.55;;;13.60;99.90;;;;;;4961641;28;89529;-34
2022/06/17 01:12:01;;;;;;;9.60;8.05;;;13.60;99.90;;;;;;4952615;28;90197;-36
2022/06/17 01:14:27;;;;;;;9.60;8.63;;;13.60;99.90;;;;;;4962648;28;90290;-35
2022/06/17 01:16:55;;;;;;;10.02;8.02;;;13.60;99.90;;;;;;4962191;28;90338;-37
2022/06/17 01:19:39;;;;;;;11.33;8.73;;;13.60;99.90;;;;;;4962733;28;89679;-38
2022/06/17 01:22:32;;;;;;;13.55;8.65;;;13.60;99.90;;;;;;4962596;28;90307;-34
2022/06/17 01:25:21;;;;;;;9.25;8.15;;;13.60;99.90;;;;;;4961590;28;89639;-35
2022/06/17 01:28:08;;;;;;;9.75;7.60;;;13.60;99.90;;;;;;4961827;28;89499;-36
2022/06/17 01:30:37;;;;;;;9.82;8.05;;;13.60;99.90;;;;;;4962909;28;89663;-34
2022/06/17 01:33:10;;;;;;;12.50;8.73;;;13.60;99.90;;;;;;4963321;28;90369;-33
2022/06/17 01:36:00;;;;;;;10.13;9.07;;;13.60;99.90;;;;;;4962063;28;90913;-34
2022/06/17 01:38:27;;;;;;;10.82;9.80;;;13.50;99.90;;;;;;4957198;28;89534;-38
2022/06/17 01:40:55;;;;;;;10.88;9.60;;;13.60;99.90;;;;;;4961776;28;87991;-37
2022/06/17 01:43:24;;;;;;;9.38;8.45;;;13.60;99.90;;;;;;4961514;28;89437;-37
2022/06/17 01:45:59;;;;;;;10.48;9.48;;;13.50;99.90;;;;;;4962107;28;89767;-33
2022/06/17 01:48:28;;;;;;;13.02;10.48;;;13.60;99.90;;;;;;4962509;28;89356;-36
2022/06/17 01:50:57;;;;;;;13.75;9.93;;;13.60;99.90;;;;;;4961367;28;88445;-34
2022/06/17 01:53:27;;;;;;;11.30;9.93;;;13.60;99.90;;;;;;4961841;28;90665;-34
2022/06/17 01:56:02;;;;;;;9.98;8.98;;;13.70;99.90;;;;;;4961827;28;89268;-36
2022/06/17 01:58:52;;;;;;;11.57;9.63;;;13.60;99.90;;;;;;4962207;28;89553;-35
2022/06/17 02:01:18;;;;;;;12.07;9.52;;;13.70;99.90;;;;;;4961843;28;89177;-36
2022/06/17 02:03:50;;;;;;;11.90;10.55;;;13.70;99.90;;;;;;4961605;28;89411;-37
2022/06/17 02:06:23;;;;;;;13.60;10.38;;;13.70;99.90;;;;;;4960151;28;90748;-34
2022/06/17 02:08:51;;;;;;;16.63;10.00;;;13.70;99.90;;;;;;4960767;28;90723;-34
2022/06/17 02:11:17;;;;;;;12.88;11.00;;;13.70;99.90;;;;;;4961391;28;90153;-35
2022/06/17 02:13:43;;;;;;;11.50;10.27;;;13.60;99.90;;;;;;4961032;28;90352;-36
2022/06/17 02:16:10;;;;;;;10.98;9.98;;;13.50;99.90;;;;;;4961154;28;90389;-34
2022/06/17 02:18:39;;;;;;;12.43;10.60;;;13.50;99.90;;;;;;4960584;28;89617;-33
2022/06/17 02:21:10;;;;;;;12.93;11.77;;;13.50;99.90;;;;;;4960908;28;88966;-36
2022/06/17 02:23:37;;;;;;;11.93;10.60;;;13.60;99.90;;;;;;4961200;28;90655;-35
2022/06/17 02:26:05;;;;;;;16.85;12.25;;;13.60;99.90;;;;;;4961033;28;90404;-40
2022/06/17 02:28:32;;;;;;;12.77;11.32;;;13.60;99.90;;;;;;4961202;28;89649;-36
2022/06/17 02:31:00;;;;;;;11.93;10.75;;;13.60;99.90;;;;;;4960074;28;89594;-33
2022/06/17 02:33:26;;;;;;;;;;;13.60;99.90;;;;;;4961543;28;89667;-34
2022/06/17 02:35:58;;;;;;;11.82;10.63;;;13.60;99.90;;;;;;4962558;28;89721;-34
2022/06/17 02:38:27;;;;;;;11.65;10.48;;;13.60;99.90;;;;;;4960772;28;89843;-34
2022/06/17 02:40:58;;;;;;;14.43;11.02;;;13.60;99.90;;;;;;4960462;28;89051;-37
2022/06/17 02:43:28;;;;;;;12.32;10.68;;;13.60;99.90;;;;;;4960398;28;90398;-35
2022/06/17 02:45:59;;;;;;;13.02;11.80;;;13.60;99.90;;;;;;4960284;28;89473;-34
2022/06/17 02:48:32;;;;;;;14.63;10.73;;;13.60;99.90;;;;;;4961037;28;89483;-36
2022/06/17 02:51:00;;;;;;;12.10;10.02;;;13.60;99.90;;;;;;4960926;28;89928;-37
2022/06/17 02:53:31;;;;;;;15.63;11.05;;;13.60;99.90;;;;;;4959023;28;90687;-36
2022/06/17 02:55:58;;;;;;;14.55;10.93;;;13.50;99.90;;;;;;4960067;28;90742;-36
2022/06/17 02:58:29;;;;;;;12.63;11.13;;;13.50;99.90;;;;;;4960308;28;90370;-34
2022/06/17 03:00:57;;;;;;;11.48;10.38;;;13.50;99.90;;;;;;4960070;28;88681;-35
2022/06/17 03:03:24;;;;;;;11.07;9.93;;;13.50;99.90;;;;;;4960965;28;91355;-33
2022/06/17 03:05:50;;;;;;;12.10;10.85;;;13.50;99.90;;;;;;4960389;28;89500;-34
2022/06/17 03:08:25;;;;;;;12.68;10.68;;;13.50;99.90;;;;;;4959759;28;89434;-35
2022/06/17 03:10:54;;;;;;;10.43;9.45;;;13.50;99.90;;;;;;4960359;28;89923;-33
2022/06/17 03:13:28;;;;;;;13.30;9.77;;;13.60;99.90;;;;;;4960762;28;91219;-34
2022/06/17 03:15:58;;;;;;;10.30;9.27;;;13.60;99.90;;;;;;4959144;28;91050;-33
2022/06/17 03:18:24;;;;;;;14.45;10.73;;;13.50;99.90;;;;;;4960382;28;89115;-35
2022/06/17 03:20:51;;;;;;;10.82;9.82;;;13.50;99.90;;;;;;4960203;28;89895;-34
2022/06/17 03:23:22;;;;;;;12.32;10.20;;;13.40;99.90;;;;;;4960111;28;91267;-33
2022/06/17 03:25:56;;;;;;;11.18;9.57;;;13.40;99.90;;;;;;4959862;28;89771;-35
2022/06/17 03:28:28;;;;;;;10.27;9.23;;;13.30;99.90;;;;;;4960212;28;89642;-33
2022/06/17 03:31:34;;;;;;;12.93;8.30;;;13.30;99.90;;;;;;4960348;28;88406;-35
2022/06/17 03:34:06;;;;;;;10.35;9.35;;;13.30;99.90;;;;;;4945304;28;90093;-33
2022/06/17 03:36:44;;;;;;;13.18;9.23;;;13.30;99.90;;;;;;4960428;28;88492;-34
2022/06/17 03:39:21;;;;;;;;;;;13.30;99.90;;;;;;4960951;28;89359;-35
2022/06/17 03:42:02;;;;;;;8.95;8.05;;;13.30;99.90;;;;;;4961077;28;90235;-36
2022/06/17 03:44:38;;;;;;;11.07;8.10;;;13.40;99.90;;;;;;4959941;28;90028;-36
2022/06/17 03:47:31;;;;;;;9.02;8.13;;;13.50;99.90;;;;;;4959393;28;90315;-38
2022/06/17 03:50:02;;;;;;;10.38;7.85;;;13.60;99.90;;;;;;4953966;28;90854;-35
2022/06/17 03:52:40;;;;;;;10.02;8.63;;;13.70;99.90;;;;;;4960865;28;88137;-33
2022/06/17 03:55:13;;;;;;;8.18;7.38;;;13.80;99.90;;;;;;4960320;28;90214;-34
2022/06/17 03:57:39;;;;;;;10.23;8.50;;;13.80;99.90;;;;;;4975144;28;89310;-36
2022/06/17 04:00:06;;;;;;;11.43;8.57;;;13.90;99.90;;;;;;4960177;28;89755;-33
2022/06/17 04:02:32;;;;;;;9.23;8.30;;;13.90;99.90;;;;;;4959787;28;88673;-33
2022/06/17 04:05:00;;;;;;;9.38;8.50;;;14.00;99.90;;;;;;4960499;28;90174;-35
2022/06/17 04:07:26;;;;;;;7.72;7.07;;;14.10;99.90;;;;;;4959713;28;90061;-34
2022/06/17 04:09:53;;;;;;;9.70;8.68;;;14.10;99.90;;;;;;4959279;28;89424;-33
2022/06/17 04:12:28;;;;;;;9.88;8.98;;;14.10;99.90;;;;;;4959481;28;88829;-34
2022/06/17 04:14:59;;;;;;;10.68;9.55;;;14.20;99.90;;;;;;4959782;28;91345;-34
2022/06/17 04:17:44;;;;;;;9.60;8.35;;;14.20;99.90;;;;;;4960540;28;89860;-35
2022/06/17 04:20:23;;;;;;;11.13;10.02;;;14.20;99.90;;;;;;4947611;28;89544;-36
2022/06/17 04:22:52;;;;;;;12.52;11.23;;;14.20;99.90;;;;;;4958490;28;88381;-33
2022/06/17 04:25:31;;;;;;;14.48;11.77;;;14.20;99.90;;;;;;4958240;28;90683;-35
2022/06/17 04:28:02;;;;;;;15.00;10.95;;;14.20;99.90;;;;;;4958771;28;90363;-38
2022/06/17 04:30:31;;;;;;;11.88;10.68;;;14.40;99.90;;;;;;4959214;28;89955;-35
2022/06/17 04:33:01;;;;;;;13.98;11.57;;;14.60;99.90;;;;;;4958310;28;88297;-34
2022/06/17 04:35:27;;;;;;;11.10;10.05;;;14.80;99.90;;;;;;4957513;28;90193;-34
2022/06/17 04:37:53;;;;;;;11.48;9.43;;;15.00;99.90;;;;;;4957952;28;90809;-34
2022/06/17 04:40:41;;;;;;;10.63;9.07;;;15.20;99.90;;;;;;4960048;28;90459;-36
2022/06/17 04:43:22;;;;;;;9.93;8.93;;;15.20;99.90;;;;;;4959942;28;90039;-33
2022/06/17 04:46:17;;;;;;;11.25;8.23;;;15.30;99.90;;;;;;4959488;28;90373;-33
2022/06/17 04:48:43;;;;;;;9.00;8.20;;;15.40;99.90;;;;;;4991794;28;91344;-34
2022/06/17 04:51:09;;;;;;;8.30;7.47;;;15.40;99.90;;;;;;4959255;28;89444;-34
2022/06/17 04:53:38;;;;;;;9.20;8.23;;;15.50;99.90;;;;;;4960116;28;89685;-36
2022/06/17 04:56:06;;;;;;;18.25;8.82;;;15.60;99.90;;;;;;4959984;28;89953;-37
2022/06/17 04:58:32;;;;;;;11.63;9.27;;;15.60;99.90;;;;;;4959792;28;89985;-34
2022/06/17 05:00:58;;;;;;;12.40;8.52;;;15.70;99.90;;;;;;4958415;28;89537;-36
2022/06/17 05:03:28;;;;;;;12.70;8.85;;;15.70;99.90;;;;;;4959775;28;88937;-33
2022/06/17 05:05:54;;;;;;;12.50;8.98;;;15.70;99.90;;;;;;4959336;28;89923;-36
2022/06/17 05:08:46;;;;;;;9.48;8.45;;;15.80;99.90;;;;;;4990438;28;89774;-37
2022/06/17 05:11:21;;;;;;;20.10;9.18;;;15.80;99.90;;;;;;4959416;28;89515;-35
2022/06/17 05:14:03;;;;;;;12.27;8.75;;;15.80;99.90;;;;;;4959147;28;88981;-35
2022/06/17 05:16:28;;;;;;;12.60;9.85;;;15.90;99.90;;;;;;4959074;28;90298;-35
2022/06/17 05:18:54;;;;;;;11.98;9.95;;;15.90;99.90;;;;;;4959362;28;90498;-37
2022/06/17 05:21:23;;;;;;;12.38;9.63;;;15.90;99.90;;;;;;4958850;28;88862;-34
2022/06/17 05:23:53;;;;;;;15.95;10.05;;;15.90;99.90;;;;;;4959606;28;89237;-37
2022/06/17 05:26:19;;;;;;;13.10;11.10;;;15.90;99.90;;;;;;4959306;28;91211;-34
2022/06/17 05:28:46;;;;;;;13.30;10.32;;;16.00;99.90;;;;;;4957900;28;91885;-34
2022/06/17 05:31:16;;;;;;;18.33;11.07;;;16.10;99.90;;;;;;4958426;28;90642;-34
2022/06/17 05:33:42;;;;;;;26.85;10.07;;;16.10;99.90;;;;;;4957598;28;89349;-35
2022/06/17 05:36:08;;;;;;;16.60;9.73;;;16.20;99.90;;;;;;4958207;28;90500;-34
2022/06/17 05:38:33;;;;;;;49.65;13.93;;;16.20;99.90;;;;;;4960036;28;89789;-37
2022/06/17 05:40:59;;;;;;;24.73;10.48;;;16.30;99.90;;;;;;4961802;28;89512;-35
2022/06/17 05:43:24;;;;;;;122.10;19.60;;;16.30;99.90;;;;;;4961642;28;88830;-35
2022/06/17 05:45:50;;;;;;;24.58;10.85;;;16.40;99.90;;;;;;4961365;28;90333;-35
2022/06/17 05:48:16;;;;;;;13.43;9.20;;;16.40;99.90;;;;;;4961721;28;89066;-36
2022/06/17 05:50:41;;;;;;;10.50;9.43;;;16.50;99.90;;;;;;4961704;28;89841;-37
2022/06/17 05:53:10;;;;;;;11.95;9.90;;;16.50;99.90;;;;;;4962080;28;88426;-35
2022/06/17 05:55:36;;;;;;;12.27;10.57;;;16.50;99.90;;;;;;4962015;28;90289;-34
2022/06/17 05:58:03;;;;;;;13.10;10.20;;;16.60;99.90;;;;;;4960438;28;89338;-36
2022/06/17 06:00:31;;;;;;;12.60;9.52;;;16.60;99.90;;;;;;4959977;28;89660;-36
2022/06/17 06:03:03;;;;;;;18.33;11.83;;;16.60;99.90;;;;;;4961064;28;88853;-35
2022/06/17 06:05:32;;;;;;;10.18;9.20;;;16.60;99.90;;;;;;4954054;28;90213;-33
2022/06/17 06:07:59;;;;;;;16.05;9.68;;;16.60;99.90;;;;;;4961329;28;89640;-34
2022/06/17 06:10:25;;;;;;;10.95;9.50;;;16.70;99.90;;;;;;4962361;28;89080;-35
2022/06/17 06:12:54;;;;;;;9.43;8.52;;;16.70;99.90;;;;;;4961008;28;88547;-36
2022/06/17 06:15:31;;;;;;;10.35;8.15;;;16.70;99.90;;;;;;4961256;28;90352;-36
2022/06/17 06:17:57;;;;;;;10.20;9.15;;;16.80;99.90;;;;;;4960515;28;90740;-34
2022/06/17 06:20:22;;;;;;;10.68;9.40;;;16.80;99.90;;;;;;4961816;28;90228;-36
2022/06/17 06:22:48;;;;;;;14.38;9.32;;;16.80;99.90;;;;;;4961304;28;90012;-35
2022/06/17 06:25:16;;;;;;;10.23;9.05;;;16.90;99.90;;;;;;4961332;28;90986;-39
2022/06/17 06:27:42;;;;;;;11.15;8.70;;;16.90;99.90;;;;;;4960205;28;89464;-35
2022/06/17 06:30:24;;;;;;;10.88;9.27;;;17.00;99.90;;;;;;4959782;28;89687;-33
2022/06/17 06:32:56;;;;;;;12.13;8.27;;;17.00;99.90;;;;;;4961154;28;88621;-37
2022/06/17 06:35:24;;;;;;;72.10;15.15;;;17.10;99.90;;;;;;4961183;28;89585;-35
2022/06/17 06:37:50;;;;;;;16.73;8.30;;;17.10;99.90;;;;;;4957377;28;89845;-35
2022/06/17 06:40:17;;;;;;;10.07;8.65;;;17.20;99.90;;;;;;4958853;28;89740;-33
2022/06/17 06:42:43;;;;;;;10.73;8.40;;;17.20;99.90;;;;;;4960712;28;90070;-38
2022/06/17 06:45:18;;;;;;;24.73;9.45;;;17.20;99.90;;;;;;4962828;28;90358;-34
2022/06/17 06:47:45;;;;;;;13.18;8.98;;;17.30;99.90;;;;;;4962269;28;89281;-33
2022/06/17 06:50:14;;;;;;;9.10;8.23;;;17.30;99.90;;;;;;4961392;28;88767;-33
2022/06/17 06:52:40;;;;;;;14.70;8.32;;;17.30;99.90;;;;;;4960508;28;89441;-38
2022/06/17 06:55:05;;;;;;;15.40;9.95;;;17.40;99.90;;;;;;4964002;28;90156;-36
2022/06/17 06:57:31;;;;;;;41.85;12.45;;;17.40;99.90;;;;;;4962921;28;89380;-35
2022/06/17 07:00:06;;;;;;;24.55;9.80;;;17.50;99.90;;;;;;4960331;28;89640;-34
2022/06/17 07:02:33;;;;;;;10.30;8.55;;;17.60;99.90;;;;;;4958423;28;88605;-35
2022/06/17 07:04:59;;;;;;;11.75;9.30;;;17.70;99.90;;;;;;4958741;28;89917;-38
2022/06/17 07:07:24;;;;;;;10.95;9.95;;;17.70;99.90;;;;;;4958050;28;90652;-34
2022/06/17 07:09:50;;;;;;;13.05;10.55;;;17.80;99.90;;;;;;4958379;28;90483;-36
2022/06/17 07:12:16;;;;;;;12.25;9.82;;;18.00;99.90;;;;;;4958444;28;89977;-34
2022/06/17 07:14:42;;;;;;;13.35;10.40;;;18.10;99.90;;;;;;4958637;28;90180;-34
2022/06/17 07:17:08;;;;;;;11.48;10.38;;;18.30;99.90;;;;;;4960583;28;89710;-38
2022/06/17 07:19:34;;;;;;;13.52;9.95;;;18.40;99.90;;;;;;4961255;28;89330;-33
2022/06/17 07:21:59;;;;;;;12.32;10.15;;;18.50;99.90;;;;;;4962008;28;89044;-35
2022/06/17 07:24:25;;;;;;;14.10;9.57;;;18.60;99.90;;;;;;4960148;28;90480;-36
2022/06/17 07:26:50;;;;;;;9.32;8.43;;;18.80;99.90;;;;;;4960052;28;89791;-37
2022/06/17 07:29:16;;;;;;;9.93;9.02;;;19.20;99.90;;;;;;4962371;28;89531;-35
2022/06/17 07:31:42;;;;;;;12.52;8.25;;;19.40;99.90;;;;;;4959906;28;90108;-37
2022/06/17 07:34:07;;;;;;;8.70;7.32;;;19.70;99.90;;;;;;4960794;28;90571;-36
2022/06/17 07:42:03;;;;;;;9.60;7.97;;;20.50;99.90;;;;;;4960702;28;88925;-37
2022/06/17 07:44:28;;;;;;;10.63;7.22;;;20.70;99.90;;;;;;4960224;28;90639;-35
2022/06/17 07:46:54;;;;;;;7.93;7.20;;;20.70;99.90;;;;;;4959838;28;89719;-36
2022/06/17 07:49:21;;;;;;;8.40;7.63;;;20.70;99.90;;;;;;4960508;28;89704;-34
2022/06/17 07:51:46;;;;;;;8.63;7.10;;;20.70;99.90;;;;;;4959996;28;88952;-33
2022/06/17 07:54:12;;;;;;;6.75;5.82;;;20.80;99.90;;;;;;4960594;28;90254;-35
2022/06/17 07:56:38;;;;;;;9.43;5.57;;;20.90;99.90;;;;;;4959356;28;92357;-35
2022/06/17 07:59:04;;;;;;;8.10;7.28;;;21.00;99.90;;;;;;4960065;28;90963;-34
2022/06/17 08:01:29;;;;;;;7.75;6.93;;;21.20;99.90;;;;;;4959414;28;87640;-37
2022/06/17 08:03:56;;;;;;;7.85;7.05;;;21.40;99.90;;;;;;4959819;28;90638;-35
2022/06/17 08:06:21;;;;;;;8.20;7.43;;;21.50;99.90;;;;;;4960508;28;89813;-37
2022/06/17 08:08:48;;;;;;;8.15;6.90;;;21.90;99.90;;;;;;4959110;28;89149;-37
2022/06/17 08:11:14;;;;;;;9.50;7.25;;;21.90;99.90;;;;;;4960176;28;89071;-35
2022/06/17 08:13:40;;;;;;;9.02;6.68;;;22.20;99.90;;;;;;4991794;28;89093;-37
2022/06/17 08:16:07;;;;;;;8.25;7.20;;;22.50;99.90;;;;;;4959286;28;89951;-38
2022/06/17 08:18:35;;;;;;;7.10;6.43;;;22.80;99.90;;;;;;4959465;28;89543;-38
2022/06/17 08:21:00;;;;;;;9.15;7.50;;;22.90;99.90;;;;;;4959403;28;89329;-37
2022/06/17 08:23:26;;;;;;;7.72;7.03;;;22.70;99.90;;;;;;4960119;28;92301;-36
2022/06/17 08:25:52;;;;;;;6.70;6.07;;;22.50;99.90;;;;;;4959483;28;90185;-35
2022/06/17 08:28:19;;;;;;;7.88;5.97;;;22.40;99.90;;;;;;4959825;28;89627;-34
2022/06/17 08:30:53;;;;;;;8.52;6.10;;;22.30;99.90;;;;;;4959409;28;87491;-36
2022/06/17 08:33:27;;;;;;;14.05;6.63;;;22.30;99.90;;;;;;4959852;28;90334;-37
2022/06/17 08:35:54;;;;;;;13.85;7.30;;;22.40;99.90;;;;;;4959414;28;89383;-35
2022/06/17 08:38:21;;;;;;;17.63;6.63;;;22.30;99.90;;;;;;4959556;28;90058;-37
2022/06/17 08:40:55;;;;;;;6.38;5.78;;;22.40;99.90;;;;;;4960058;28;87573;-36
2022/06/17 08:44:00;;;;;;;10.70;7.38;;;22.40;99.90;;;;;;4959173;28;90510;-33
2022/06/17 08:46:37;;;;;;;13.25;8.27;;;22.50;99.90;;;;;;4959262;28;91025;-37
2022/06/17 08:49:45;;;;;;;7.15;5.70;;;22.80;99.90;;;;;;4947763;28;91274;-34
2022/06/17 08:52:32;;;;;;;10.98;6.35;;;23.30;99.90;;;;;;4959810;28;89634;-36
2022/06/17 08:55:26;;;;;;;7.73;7.00;;;23.70;99.90;;;;;;4959640;28;90261;-37
2022/06/17 08:58:13;;;;;;;8.50;6.28;;;24.00;97.60;;;;;;4959243;28;89847;-34
2022/06/17 09:00:58;;;;;;;9.03;6.97;;;24.20;96.20;;;;;;4958547;28;88545;-34
2022/06/17 09:03:48;;;;;;;6.80;6.20;;;24.30;98.20;;;;;;4959423;28;89817;-37
2022/06/17 09:06:21;;;;;;;7.30;6.28;;;24.20;94.90;;;;;;4959454;28;90350;-35
2022/06/17 09:08:52;;;;;;;11.73;6.40;;;24.10;95.70;;;;;;4958781;28;89303;-35
2022/06/17 09:11:21;;;;;;;7.25;5.90;;;23.80;97.40;;;;;;4959634;28;89375;-34
2022/06/17 09:14:09;;;;;;;6.47;5.90;;;23.70;96.50;;;;;;4962592;28;90417;-33
2022/06/17 09:16:46;;;;;;;12.40;6.40;;;23.60;93.90;;;;;;4962652;28;90316;-35
2022/06/17 09:19:18;;;;;;;10.60;6.30;;;23.50;96.80;;;;;;4962269;28;88541;-34
2022/06/17 09:21:49;;;;;;;5.90;5.38;;;23.30;97.30;;;;;;4962403;28;89600;-35
2022/06/17 09:24:25;;;;;;;6.03;4.40;;;23.20;99.90;;;;;;4963204;28;89206;-35
2022/06/17 09:27:00;;;;;;;6.15;5.55;;;23.20;99.90;;;;;;4961774;28;89915;-34
2022/06/17 09:29:25;;;;;;;14.50;6.45;;;23.20;98.70;;;;;;4962894;28;89902;-36
2022/06/17 09:32:16;;;;;;;8.88;5.85;;;23.30;96.60;;;;;;4961825;28;89385;-37
2022/06/17 09:35:16;;;;;;;6.53;5.93;;;23.30;95.20;;;;;;4962501;28;89267;-36
2022/06/17 09:37:56;;;;;;;9.80;5.47;;;23.30;95.90;;;;;;4962352;28;91322;-37
2022/06/17 09:40:37;;;;;;;6.68;5.13;;;23.30;98.50;;;;;;4961768;28;90551;-38
2022/06/17 09:43:12;;;;;;;19.23;5.13;;;23.40;99.80;;;;;;4961634;28;90033;-34
2022/06/17 09:45:40;;;;;;;9.00;5.50;;;23.40;99.90;;;;;;4959863;28;89528;-36
2022/06/17 09:48:23;;;;;;;6.35;5.60;;;23.40;99.90;;;;;;4962253;28;90219;-34
2022/06/17 09:50:54;;;;;;;7.75;5.93;;;23.40;96.80;;;;;;4961654;28;89723;-34
2022/06/17 09:53:30;;;;;;;8.50;6.45;;;23.50;95.80;;;;;;4961743;28;89654;-34
2022/06/17 09:56:04;;;;;;;9.95;5.93;;;23.40;93.60;;;;;;4962015;28;87607;-37
2022/06/17 09:58:39;;;;;;;6.13;5.35;;;23.50;95.10;;;;;;4962100;28;90537;-36
2022/06/17 10:01:07;;;;;;;8.40;6.18;;;23.50;93.00;;;;;;4961319;28;89950;-37
2022/06/17 10:03:37;;;;;;;7.15;6.38;;;23.50;93.60;;;;;;4962424;28;91775;-34
2022/06/17 10:06:13;;;;;;;7.40;5.90;;;23.60;91.60;;;;;;4961995;28;89116;-36
2022/06/17 10:08:59;;;;;;;5.95;5.47;;;23.60;87.40;;;;;;4960895;28;90277;-36
2022/06/17 10:11:45;;;;;;;6.68;5.97;;;23.70;90.50;;;;;;4960976;28;89550;-34
2022/06/17 10:14:32;;;;;;;7.50;5.55;;;23.70;79.00;;;;;;4968758;28;89683;-38
2022/06/17 10:20:03;;;;;;;6.85;5.15;;;23.70;84.20;;;;;;4960245;28;90367;-34
2022/06/17 10:22:51;;;;;;;7.20;5.25;;;23.60;83.50;;;;;;4961171;28;89843;-35
2022/06/17 10:25:47;;;;;;;6.00;5.47;;;23.60;83.80;;;;;;4961357;28;90231;-37
2022/06/17 10:28:55;;;;;;;7.68;5.50;;;23.50;84.60;;;;;;4959618;28;89216;-36
2022/06/17 10:31:34;;;;;;;5.50;4.95;;;23.50;89.70;;;;;;4961056;28;90315;-35
2022/06/17 10:34:43;;;;;;;10.77;4.65;;;23.60;94.70;;;;;;4959112;28;90473;-35
2022/06/17 10:37:10;;;;;;;10.15;4.90;;;23.60;93.50;;;;;;4964346;28;90740;-35
2022/06/17 10:39:37;;;;;;;6.87;5.20;;;23.70;92.30;;;;;;4959436;28;88270;-34
2022/06/17 10:42:05;;;;;;;6.70;6.03;;;23.70;92.00;;;;;;4960190;28;90971;-38
2022/06/17 10:44:31;;;;;;;6.28;5.35;;;23.60;84.80;;;;;;4961368;28;88511;-36
2022/06/17 10:47:40;;;;;;;6.55;4.60;;;23.60;87.20;;;;;;4962218;28;89678;-38
2022/06/17 10:50:26;;;;;;;4.60;4.20;;;23.70;90.00;;;;;;4946817;28;88885;-37
2022/06/17 10:53:02;;;;;;;6.97;4.97;;;23.70;89.50;;;;;;4959424;28;90303;-34
2022/06/17 10:55:35;;;;;;;8.43;5.80;;;23.60;88.80;;;;;;4959859;28;89497;-38
2022/06/17 10:58:21;;;;;;;7.25;6.57;;;23.60;88.50;;;;;;4958629;28;89626;-35
2022/06/17 11:01:00;;;;;;;10.18;6.00;;;23.70;80.20;;;;;;4960471;28;88412;-39
2022/06/17 11:03:29;;;;;;;8.27;6.05;;;23.70;86.50;;;;;;4958301;28;90263;-37
2022/06/17 11:06:17;;;;;;;8.05;5.30;;;23.70;88.90;;;;;;4958385;28;88586;-38
2022/06/17 11:08:49;;;;;;;13.35;7.07;;;23.70;90.50;;;;;;4958193;28;89509;-37
2022/06/17 11:14:05;;;;;;;9.30;6.15;;;23.80;91.30;;;;;;4959068;28;91271;-34
2022/06/17 11:16:35;;;;;;;;;;;23.90;86.80;;;;;;4958882;28;90162;-37
2022/06/17 11:19:06;;;;;;;6.53;5.93;;;23.90;84.10;;;;;;4959825;28;89468;-38
2022/06/17 11:21:40;;;;;;;16.38;6.25;;;24.00;85.20;;;;;;4959765;28;88230;-34
2022/06/17 11:24:15;;;;;;;5.75;5.22;;;24.10;85.60;;;;;;4958636;28;90271;-35
2022/06/17 11:26:40;;;;;;;7.60;6.43;;;24.20;86.70;;;;;;4957950;28;90613;-35
2022/06/17 11:29:22;;;;;;;8.65;6.20;;;24.20;84.40;;;;;;4959163;28;89919;-37
2022/06/17 11:31:49;;;;;;;9.10;6.78;;;24.20;80.30;;;;;;4958080;28;88305;-39
2022/06/17 11:34:17;;;;;;;9.27;5.97;;;24.40;75.20;;;;;;4958480;28;90139;-38
2022/06/17 11:37:11;;;;;;;8.50;5.00;;;24.40;75.50;;;;;;4957546;28;90345;-34
2022/06/17 11:39:37;;;;;;;6.22;5.63;;;24.40;80.90;;;;;;4958418;28;90218;-37
2022/06/17 11:42:24;;;;;;;5.90;5.40;;;24.30;77.30;;;;;;4958351;28;89025;-35
2022/06/17 11:45:00;;;;;;;6.47;5.88;;;24.40;80.30;;;;;;4958566;28;90256;-36
2022/06/17 11:47:29;;;;;;;7.25;4.90;;;24.40;82.60;;;;;;4958023;28;90194;-36
2022/06/17 11:49:58;;;;;;;9.48;4.80;;;24.40;79.80;;;;;;4957915;28;88897;-36
2022/06/17 11:52:33;;;;;;;5.00;4.65;;;24.40;81.80;;;;;;4957221;28;90708;-36
2022/06/17 11:55:00;;;;;;;4.38;3.97;;;24.40;87.10;;;;;;4958086;28;90419;-35
2022/06/17 11:57:31;;;;;;;7.70;6.32;;;24.50;89.70;;;;;;4958350;28;90551;-36
2022/06/17 11:59:59;;;;;;;7.20;5.68;;;24.40;86.00;;;;;;4958521;28;89934;-35
2022/06/17 12:02:26;;;;;;;10.05;5.30;;;24.50;85.20;;;;;;4957682;28;88483;-35
2022/06/17 12:05:08;;;;;;;5.45;4.85;;;24.70;80.50;;;;;;4957471;28;90170;-35
2022/06/17 12:07:55;;;;;;;5.30;4.72;;;24.80;78.20;;;;;;4958243;28;89284;-35
2022/06/17 12:10:46;;;;;;;5.70;5.18;;;24.90;78.30;;;;;;4948672;28;89886;-36
2022/06/17 12:13:23;;;;;;;4.90;4.45;;;25.00;75.30;;;;;;4958135;28;89258;-37
2022/06/17 12:15:57;;;;;;;7.72;5.88;;;25.10;71.90;;;;;;4957762;28;90095;-38
2022/06/17 12:18:36;;;;;;;8.43;5.90;;;25.20;70.60;;;;;;4957255;28;90803;-35
2022/06/17 12:21:14;;;;;;;5.85;4.22;;;25.30;69.60;;;;;;4891745;28;90811;-34
2022/06/17 12:23:59;;;;;;;10.70;5.30;;;25.30;68.40;;;;;;4924321;28;89243;-38
2022/06/17 12:26:29;;;;;;;7.63;5.90;;;25.30;68.50;;;;;;4954960;28;90120;-34
2022/06/17 12:29:11;;;;;;;5.90;5.15;;;25.40;70.00;;;;;;4957405;28;91627;-34
2022/06/17 12:31:43;;;;;;;5.35;4.93;;;25.60;65.70;;;;;;4955445;28;89732;-33
2022/06/17 12:34:21;;;;;;;6.07;4.50;;;25.70;63.50;;;;;;4957537;28;89812;-36
2022/06/17 12:36:58;;;;;;;7.70;5.57;;;25.70;66.00;;;;;;4957170;28;89098;-38
2022/06/17 12:39:30;;;;;;;8.07;4.65;;;25.60;64.80;;;;;;4957259;28;90160;-35
2022/06/17 12:42:17;;;;;;;4.80;4.40;;;25.70;66.60;;;;;;4957038;28;90001;-35
2022/06/17 12:45:06;;;;;;;8.43;5.80;;;25.80;63.70;;;;;;4956990;28;90009;-37
2022/06/17 12:47:54;;;;;;;7.25;4.57;;;25.80;62.50;;;;;;4956504;28;89586;-36
2022/06/17 12:53:20;;;;;;;13.63;4.85;;;26.10;62.30;;;;;;4957704;28;89468;-34
2022/06/17 12:55:58;;;;;;;9.05;4.88;;;26.20;62.50;;;;;;4957667;28;89482;-39
2022/06/17 12:58:23;;;;;;;;;;;26.20;61.50;;;;;;4957712;28;90025;-35
2022/06/17 13:00:58;;;;;;;7.97;5.28;;;26.10;61.20;;;;;;5010324;22;94387;-36
2022/06/17 13:04:12;;;;;;;7.47;5.15;;;26.00;60.40;;;;;;4996301;28;91284;-36
2022/06/17 13:06:53;;;;;;;6.30;5.68;;;26.00;60.10;;;;;;4974848;28;88800;-35
2022/06/17 13:09:42;;;;;;;8.25;4.80;;;26.10;60.30;;;;;;4975975;28;90415;-34
2022/06/17 13:12:36;;;;;;;14.52;5.22;;;26.10;61.20;;;;;;4996681;28;90747;-36
2022/06/17 13:15:15;;;;;;;16.15;5.70;;;26.20;59.80;;;;;;4996765;28;90599;-35
2022/06/17 13:17:58;;;;;;;5.90;4.80;;;26.20;59.80;;;;;;4918967;28;88575;-38
2022/06/17 13:20:39;;;;;;;6.80;4.85;;;26.10;60.40;;;;;;4965071;28;90893;-35
2022/06/17 13:23:26;;;;;;;6.45;4.30;;;26.10;59.50;;;;;;4984521;28;89828;-34
2022/06/17 13:26:02;;;;;;;5.33;4.20;;;26.10;59.60;;;;;;4994766;28;89717;-36
2022/06/17 13:28:46;;;;;;;11.23;4.75;;;25.90;59.90;;;;;;5001539;28;88685;-36